Time;durP1;ratioP1;P1;durP2;ratioP2;P2;SDS_P1;SDS_P2;PMS_P1;PMS_P2;Temp;Humidity;BMP_temperature;BMP_pressure;BME280_temperature;BME280_humidity;BME280_pressure;Samples;Min_cycle;Max_cycle;Signal;HPM_P1;HPM_P2
2023/06/05 00:02:12;;;;;;;0.43;0.20;;;12.50;99.90;;;;;;4936242;29;20054;-60
2023/06/05 00:04:39;;;;;;;0.30;0.30;;;12.70;99.90;;;;;;4935511;29;20504;-60
2023/06/05 00:07:05;;;;;;;0.30;0.30;;;12.80;99.90;;;;;;4935866;29;20070;-60
2023/06/05 00:09:31;;;;;;;0.35;0.35;;;12.50;99.90;;;;;;4935424;29;20122;-60
2023/06/05 00:11:57;;;;;;;;;;;12.80;99.90;;;;;;4935820;29;20043;-60
2023/06/05 00:14:22;;;;;;;0.30;0.30;;;12.70;99.90;;;;;;4935512;29;19946;-60
2023/06/05 00:16:51;;;;;;;0.38;0.38;;;12.40;99.90;;;;;;4918375;29;20168;-60
2023/06/05 00:19:17;;;;;;;0.28;0.28;;;12.40;99.90;;;;;;4935418;29;20083;-60
2023/06/05 00:21:43;;;;;;;0.30;0.30;;;12.60;99.90;;;;;;4935333;29;20126;-60
2023/06/05 00:24:08;;;;;;;;;;;12.50;99.90;;;;;;4935809;29;20051;-61
2023/06/05 00:26:34;;;;;;;0.10;0.10;;;12.50;99.90;;;;;;4935024;29;19923;-60
2023/06/05 00:29:00;;;;;;;0.43;0.40;;;12.60;99.90;;;;;;4935365;29;20377;-60
2023/06/05 00:31:25;;;;;;;0.38;0.30;;;12.40;99.90;;;;;;4934802;29;20103;-61
2023/06/05 00:33:51;;;;;;;0.38;0.38;;;12.60;99.90;;;;;;4934989;29;20051;-61
2023/06/05 00:36:18;;;;;;;0.70;0.55;;;12.50;99.90;;;;;;4934897;29;20051;-61
2023/06/05 00:38:45;;;;;;;0.20;0.20;;;12.50;99.90;;;;;;4934928;29;20059;-61
2023/06/05 00:41:10;;;;;;;0.35;0.20;;;12.40;99.90;;;;;;4935083;29;20161;-61
2023/06/05 00:43:37;;;;;;;0.25;0.25;;;12.60;99.90;;;;;;4917974;29;20192;-61
2023/06/05 00:46:04;;;;;;;0.95;0.63;;;12.50;99.90;;;;;;4917843;29;20457;-60
2023/06/05 00:48:30;;;;;;;0.20;0.20;;;12.30;99.90;;;;;;4934788;29;20078;-61
2023/06/05 00:50:57;;;;;;;0.45;0.45;;;12.60;99.90;;;;;;4934776;29;20123;-61
2023/06/05 00:53:24;;;;;;;0.35;0.35;;;12.50;99.90;;;;;;4934602;29;20124;-61
2023/06/05 00:55:51;;;;;;;0.40;0.40;;;12.50;99.90;;;;;;4934806;29;20079;-61
2023/06/05 00:58:17;;;;;;;0.13;0.13;;;12.70;99.90;;;;;;4934587;29;20063;-61
2023/06/05 01:00:45;;;;;;;0.20;0.20;;;12.60;99.90;;;;;;4934602;29;20070;-61
2023/06/05 01:03:12;;;;;;;0.30;0.30;;;12.40;99.90;;;;;;4935010;29;20062;-61
2023/06/05 01:05:38;;;;;;;0.17;0.17;;;12.30;99.90;;;;;;4934532;29;20051;-60
2023/06/05 01:08:05;;;;;;;0.30;0.30;;;12.50;99.90;;;;;;4934156;29;20544;-61
2023/06/05 01:10:31;;;;;;;1.38;0.47;;;12.40;99.90;;;;;;4934424;29;20055;-60
2023/06/05 01:13:00;;;;;;;0.20;0.20;;;12.90;99.90;;;;;;4934206;29;20130;-61
2023/06/05 01:15:29;;;;;;;0.25;0.25;;;12.60;99.90;;;;;;4934315;29;20465;-60
2023/06/05 01:17:59;;;;;;;0.30;0.30;;;12.60;99.90;;;;;;4934378;29;20080;-60
2023/06/05 01:20:39;;;;;;;0.20;0.20;;;12.10;99.90;;;;;;4934545;29;20047;-60
2023/06/05 01:23:08;;;;;;;0.20;0.20;;;12.70;99.90;;;;;;4934303;29;20047;-60
2023/06/05 01:25:36;;;;;;;0.20;0.20;;;12.40;99.90;;;;;;4934120;29;20052;-60
2023/06/05 01:28:18;;;;;;;0.20;0.20;;;12.50;99.90;;;;;;4934184;29;20087;-60
2023/06/05 01:31:01;;;;;;;0.30;0.30;;;12.30;99.90;;;;;;4934499;29;20059;-60
2023/06/05 01:33:41;;;;;;;0.30;0.30;;;12.50;99.90;;;;;;4934237;29;20050;-60
2023/06/05 01:36:09;;;;;;;0.28;0.28;;;12.70;99.90;;;;;;4933981;29;20122;-60
2023/06/05 01:38:36;;;;;;;0.10;0.10;;;12.50;99.90;;;;;;4934292;29;20279;-60
2023/06/05 01:41:03;;;;;;;0.40;0.40;;;12.40;99.90;;;;;;4934054;29;20086;-60
2023/06/05 01:43:30;;;;;;;0.30;0.30;;;12.20;99.90;;;;;;4934088;29;20060;-62
2023/06/05 01:45:58;;;;;;;0.20;0.20;;;12.30;99.90;;;;;;4933946;29;20060;-60
2023/06/05 01:48:27;;;;;;;0.20;0.20;;;12.40;99.90;;;;;;4934368;29;20051;-60
2023/06/05 01:50:57;;;;;;;0.22;0.22;;;12.10;99.90;;;;;;4934352;29;20063;-60
2023/06/05 01:53:23;;;;;;;0.47;0.47;;;12.10;99.90;;;;;;4917374;29;20043;-60
2023/06/05 01:55:49;;;;;;;;;;;12.60;99.90;;;;;;4934931;29;20051;-60
2023/06/05 01:58:15;;;;;;;0.25;0.25;;;12.30;99.90;;;;;;4933746;29;20106;-60
2023/06/05 02:00:42;;;;;;;0.30;0.30;;;12.00;99.90;;;;;;4934026;29;20147;-61
2023/06/05 02:03:08;;;;;;;0.32;0.32;;;12.10;99.90;;;;;;4933806;29;20052;-60
2023/06/05 02:05:34;;;;;;;0.10;0.10;;;12.40;99.90;;;;;;4934021;29;20051;-60
2023/06/05 02:08:04;;;;;;;0.45;0.40;;;12.20;99.90;;;;;;4934163;29;20047;-60
2023/06/05 02:10:31;;;;;;;0.30;0.30;;;12.70;99.90;;;;;;4934040;29;20048;-60
2023/06/05 02:12:57;;;;;;;0.20;0.20;;;12.20;99.90;;;;;;4901316;29;20099;-60
2023/06/05 02:15:22;;;;;;;0.20;0.20;;;12.20;99.90;;;;;;4934123;29;20108;-60
2023/06/05 02:17:53;;;;;;;1.55;0.30;;;12.30;99.90;;;;;;4933761;29;20066;-60
2023/06/05 02:20:24;;;;;;;0.35;0.35;;;12.20;99.90;;;;;;4934282;29;20496;-60
2023/06/05 02:22:51;;;;;;;0.30;0.30;;;12.40;99.90;;;;;;4937363;29;20052;-60
2023/06/05 02:25:18;;;;;;;0.10;0.10;;;12.40;99.90;;;;;;4937669;29;20090;-60
2023/06/05 02:27:44;;;;;;;0.10;0.10;;;12.70;99.90;;;;;;4937437;29;20407;-60
2023/06/05 02:30:11;;;;;;;0.30;0.30;;;12.50;99.90;;;;;;4937252;29;20580;-60
2023/06/05 02:32:41;;;;;;;0.28;0.28;;;12.00;99.90;;;;;;4937262;29;20070;-61
2023/06/05 02:35:08;;;;;;;0.38;0.38;;;12.10;99.90;;;;;;4937517;29;20068;-60
2023/06/05 02:37:37;;;;;;;0.10;0.10;;;12.30;99.90;;;;;;4920380;29;20047;-61
2023/06/05 02:40:05;;;;;;;0.45;0.45;;;12.30;99.90;;;;;;4937101;29;20135;-61
2023/06/05 02:42:31;;;;;;;0.20;0.20;;;11.90;99.90;;;;;;4936957;29;20091;-60
2023/06/05 02:44:56;;;;;;;0.35;0.35;;;12.00;99.90;;;;;;4936896;29;20056;-60
2023/06/05 02:47:22;;;;;;;0.38;0.38;;;12.10;99.90;;;;;;4937149;29;20086;-60
2023/06/05 02:49:47;;;;;;;;;;;12.30;99.90;;;;;;4937398;29;20148;-61
2023/06/05 02:52:13;;;;;;;0.20;0.20;;;12.10;99.90;;;;;;4936699;29;19927;-60
2023/06/05 02:54:39;;;;;;;0.28;0.28;;;12.20;99.90;;;;;;4919738;29;20048;-60
2023/06/05 02:57:06;;;;;;;0.20;0.20;;;12.20;99.90;;;;;;4936769;29;20134;-60
2023/06/05 02:59:32;;;;;;;0.40;0.40;;;12.30;99.90;;;;;;4936493;29;20063;-60
2023/06/05 03:01:58;;;;;;;0.20;0.20;;;12.10;99.90;;;;;;4936771;29;20040;-60
2023/06/05 03:04:24;;;;;;;0.30;0.30;;;12.30;99.90;;;;;;4936861;29;20099;-60
2023/06/05 03:06:50;;;;;;;;;;;12.40;99.90;;;;;;4937028;29;20048;-61
2023/06/05 03:09:16;;;;;;;0.30;0.30;;;12.20;99.90;;;;;;4936828;29;19954;-60
2023/06/05 03:11:42;;;;;;;0.20;0.20;;;12.10;99.90;;;;;;4936416;29;20127;-61
2023/06/05 03:14:08;;;;;;;0.30;0.30;;;12.30;99.90;;;;;;4936589;29;20048;-60
2023/06/05 03:16:41;;;;;;;0.30;0.30;;;11.80;99.90;;;;;;4936738;29;20063;-60
2023/06/05 03:19:08;;;;;;;0.32;0.32;;;12.30;99.90;;;;;;4936561;29;20051;-61
2023/06/05 03:21:35;;;;;;;0.10;0.10;;;12.10;99.90;;;;;;4936309;29;20055;-61
2023/06/05 03:24:01;;;;;;;0.32;0.30;;;11.80;99.90;;;;;;4936372;29;20130;-60
2023/06/05 03:26:28;;;;;;;0.20;0.20;;;12.30;99.90;;;;;;4936329;29;20047;-60
2023/06/05 03:28:54;;;;;;;1.17;0.50;;;12.10;99.90;;;;;;4936295;29;20056;-61
2023/06/05 03:31:20;;;;;;;0.40;0.40;;;12.10;99.90;;;;;;4935979;29;20134;-61
2023/06/05 03:33:46;;;;;;;0.20;0.20;;;11.90;99.90;;;;;;4936238;29;20056;-61
2023/06/05 03:36:11;;;;;;;0.40;0.40;;;11.90;99.90;;;;;;4936382;29;20058;-61
2023/06/05 03:38:37;;;;;;;0.25;0.25;;;12.30;99.90;;;;;;4936221;29;20095;-60
2023/06/05 03:41:03;;;;;;;0.20;0.20;;;12.10;99.90;;;;;;4936101;29;20075;-60
2023/06/05 03:43:28;;;;;;;0.20;0.20;;;12.00;99.90;;;;;;4919257;29;20055;-60
2023/06/05 03:45:54;;;;;;;0.20;0.20;;;12.00;99.90;;;;;;4936153;29;20588;-61
2023/06/05 03:48:20;;;;;;;0.20;0.20;;;12.30;99.90;;;;;;4936198;29;20512;-61
2023/06/05 03:50:47;;;;;;;0.52;0.30;;;12.00;99.90;;;;;;4936050;29;20055;-60
2023/06/05 03:53:13;;;;;;;0.30;0.30;;;11.90;99.90;;;;;;4935844;29;20110;-61
2023/06/05 03:55:44;;;;;;;0.28;0.28;;;12.40;99.90;;;;;;4935677;29;20083;-61
2023/06/05 03:58:14;;;;;;;0.30;0.30;;;12.00;99.90;;;;;;4918838;29;20102;-61
2023/06/05 04:00:42;;;;;;;0.40;0.40;;;12.10;99.90;;;;;;4935539;29;20091;-60
2023/06/05 04:03:09;;;;;;;0.30;0.30;;;12.70;99.90;;;;;;4935614;29;20040;-60
2023/06/05 04:05:35;;;;;;;0.50;0.50;;;12.20;99.90;;;;;;4935560;29;20126;-60
2023/06/05 04:08:02;;;;;;;0.20;0.20;;;12.00;99.90;;;;;;4935644;29;20163;-60
2023/06/05 04:10:28;;;;;;;0.30;0.30;;;11.80;99.90;;;;;;4918477;29;20055;-60
2023/06/05 04:12:54;;;;;;;0.30;0.30;;;12.00;99.90;;;;;;4935483;29;20106;-60
2023/06/05 04:15:20;;;;;;;1.10;0.90;;;12.10;99.90;;;;;;4935405;29;20070;-60
2023/06/05 04:17:46;;;;;;;0.20;0.20;;;12.40;99.90;;;;;;4935114;29;20055;-60
2023/06/05 04:20:15;;;;;;;0.30;0.25;;;12.40;99.90;;;;;;4935302;29;20056;-61
2023/06/05 04:22:42;;;;;;;0.30;0.30;;;12.40;99.90;;;;;;4935328;29;20071;-61
2023/06/05 04:25:10;;;;;;;0.20;0.20;;;12.50;99.90;;;;;;4935430;29;20131;-60
2023/06/05 04:27:40;;;;;;;0.22;0.22;;;12.50;99.90;;;;;;4935267;29;20106;-61
2023/06/05 04:30:07;;;;;;;0.38;0.38;;;12.70;99.90;;;;;;4935175;29;20413;-61
2023/06/05 04:32:37;;;;;;;0.13;0.13;;;12.50;99.90;;;;;;4935052;29;20124;-60
2023/06/05 04:35:03;;;;;;;0.20;0.20;;;12.50;99.90;;;;;;4934981;29;20444;-61
2023/06/05 04:37:29;;;;;;;0.30;0.30;;;12.20;99.90;;;;;;4935058;29;20055;-60
2023/06/05 04:39:54;;;;;;;0.50;0.50;;;12.60;99.90;;;;;;4935068;29;20110;-61
2023/06/05 04:42:21;;;;;;;0.28;0.28;;;12.30;99.90;;;;;;4934835;29;20077;-60
2023/06/05 04:45:04;;;;;;;0.20;0.20;;;12.40;99.90;;;;;;4934468;29;20055;-61
2023/06/05 04:47:31;;;;;;;0.10;0.10;;;12.40;99.90;;;;;;4934803;29;20062;-61
2023/06/05 04:50:05;;;;;;;0.28;0.28;;;12.60;99.90;;;;;;4934652;29;20129;-61
2023/06/05 04:52:35;;;;;;;0.20;0.20;;;12.10;99.90;;;;;;4934757;29;20044;-61
2023/06/05 04:55:01;;;;;;;0.30;0.30;;;12.20;99.90;;;;;;4934630;29;20159;-61
2023/06/05 04:57:27;;;;;;;0.30;0.30;;;12.80;99.90;;;;;;4934751;29;20043;-60
2023/06/05 04:59:54;;;;;;;0.20;0.20;;;12.20;99.90;;;;;;4934548;29;20202;-60
2023/06/05 05:02:21;;;;;;;0.30;0.30;;;12.30;99.90;;;;;;4917690;29;20047;-61
2023/06/05 05:04:47;;;;;;;0.25;0.25;;;10.10;99.90;;;;;;4934588;29;20051;-61
2023/06/05 05:07:16;;;;;;;;;;;12.30;99.90;;;;;;4935181;29;20063;-61
2023/06/05 05:09:43;;;;;;;0.20;0.20;;;12.40;99.90;;;;;;4917566;29;19931;-60
2023/06/05 05:12:12;;;;;;;0.28;0.28;;;12.50;99.90;;;;;;4934553;29;20040;-60
2023/06/05 05:14:39;;;;;;;0.20;0.20;;;12.60;99.90;;;;;;4934655;29;20138;-60
2023/06/05 05:17:05;;;;;;;0.45;0.45;;;12.70;99.90;;;;;;4934152;29;20047;-60
2023/06/05 05:19:31;;;;;;;0.20;0.20;;;12.50;99.90;;;;;;4934615;29;20134;-61
2023/06/05 05:21:57;;;;;;;0.20;0.20;;;12.70;99.90;;;;;;4934399;29;20408;-61
2023/06/05 05:24:24;;;;;;;0.10;0.10;;;12.60;99.90;;;;;;4934412;29;20083;-61
2023/06/05 05:26:51;;;;;;;0.77;0.73;;;12.90;99.90;;;;;;4917758;29;20047;-61
2023/06/05 05:29:17;;;;;;;0.30;0.30;;;12.70;99.90;;;;;;4934325;29;20113;-60
2023/06/05 05:31:44;;;;;;;0.10;0.10;;;13.00;99.90;;;;;;4934283;29;20087;-61
2023/06/05 05:34:09;;;;;;;0.35;0.35;;;13.00;99.90;;;;;;4934442;29;20050;-61
2023/06/05 05:36:36;;;;;;;0.20;0.20;;;12.80;99.90;;;;;;4917351;29;20419;-60
2023/06/05 05:39:02;;;;;;;0.10;0.10;;;12.90;99.90;;;;;;4934233;29;20127;-61
2023/06/05 05:41:28;;;;;;;0.20;0.20;;;13.00;99.90;;;;;;4934498;29;20058;-62
2023/06/05 05:43:54;;;;;;;0.30;0.30;;;13.00;99.90;;;;;;4934276;29;20044;-60
2023/06/05 05:46:19;;;;;;;;;;;13.10;99.90;;;;;;4934592;29;20350;-61
2023/06/05 05:48:45;;;;;;;0.40;0.40;;;12.80;99.90;;;;;;4934158;29;19999;-61
2023/06/05 05:51:11;;;;;;;0.30;0.30;;;12.90;99.90;;;;;;4934096;29;20485;-61
2023/06/05 05:53:36;;;;;;;0.45;0.45;;;13.20;99.90;;;;;;4934101;29;20644;-60
2023/06/05 05:56:04;;;;;;;0.30;0.30;;;13.00;99.90;;;;;;4937654;29;20051;-61
2023/06/05 05:58:31;;;;;;;0.70;0.70;;;13.30;99.90;;;;;;4938049;29;20135;-61
2023/06/05 06:00:59;;;;;;;0.30;0.30;;;13.30;99.90;;;;;;4937595;29;20047;-61
2023/06/05 06:03:26;;;;;;;0.43;0.43;;;13.30;99.90;;;;;;4937926;29;20083;-61
2023/06/05 06:05:52;;;;;;;0.32;0.32;;;13.10;99.90;;;;;;4937704;29;20071;-61
2023/06/05 06:08:18;;;;;;;0.32;0.32;;;13.10;99.90;;;;;;4937904;29;20056;-60
2023/06/05 06:10:45;;;;;;;1.13;0.40;;;13.20;99.90;;;;;;4937470;29;20182;-61
2023/06/05 06:13:11;;;;;;;0.30;0.30;;;12.70;99.90;;;;;;4937369;29;20154;-61
2023/06/05 06:15:38;;;;;;;0.20;0.20;;;12.80;99.90;;;;;;4937791;29;20092;-60
2023/06/05 06:18:05;;;;;;;0.55;0.30;;;13.20;99.90;;;;;;4937597;29;20070;-60
2023/06/05 06:20:32;;;;;;;0.20;0.20;;;12.90;99.90;;;;;;4937409;29;20066;-61
2023/06/05 06:22:58;;;;;;;0.38;0.38;;;13.10;99.90;;;;;;4937388;29;20052;-61
2023/06/05 06:25:28;;;;;;;0.38;0.38;;;13.30;99.90;;;;;;4937554;29;20449;-61
2023/06/05 06:27:54;;;;;;;0.40;0.40;;;13.50;99.90;;;;;;4937286;29;20408;-61
2023/06/05 06:30:21;;;;;;;0.13;0.13;;;13.50;99.90;;;;;;4920413;29;20401;-61
2023/06/05 06:32:50;;;;;;;0.35;0.35;;;13.40;99.90;;;;;;4936936;29;20086;-61
2023/06/05 06:35:15;;;;;;;0.30;0.30;;;13.50;99.90;;;;;;4937301;29;20051;-61
2023/06/05 06:37:42;;;;;;;0.40;0.40;;;13.70;99.90;;;;;;4919950;29;20063;-61
2023/06/05 06:40:08;;;;;;;0.22;0.22;;;13.50;99.90;;;;;;4936962;29;20047;-61
2023/06/05 06:42:34;;;;;;;0.20;0.20;;;13.60;99.90;;;;;;4936932;29;20047;-61
2023/06/05 06:45:00;;;;;;;2.00;0.60;;;13.60;99.90;;;;;;4937072;29;20130;-61
2023/06/05 06:47:26;;;;;;;;;;;13.40;99.90;;;;;;4937606;29;20144;-62
2023/06/05 06:49:52;;;;;;;0.20;0.20;;;13.50;99.90;;;;;;4936671;29;19952;-61
2023/06/05 06:52:19;;;;;;;0.82;0.52;;;13.30;99.90;;;;;;4936939;29;20052;-61
2023/06/05 06:54:46;;;;;;;0.77;0.57;;;13.60;99.90;;;;;;4920225;29;20408;-61
2023/06/05 07:02:24;;;;;;;0.30;0.30;;;13.70;99.90;;;;;;5150526;27;20788;-59
2023/06/05 07:04:50;;;;;;;0.63;0.40;;;13.60;99.90;;;;;;5150492;27;20046;-59
2023/06/05 07:07:17;;;;;;;0.20;0.20;;;13.70;99.90;;;;;;5150595;27;20051;-60
2023/06/05 07:09:45;;;;;;;0.15;0.15;;;14.00;99.90;;;;;;5150341;27;20082;-60
2023/06/05 07:12:12;;;;;;;0.20;0.20;;;14.00;99.90;;;;;;5150162;27;20440;-59
2023/06/05 07:14:39;;;;;;;1.05;1.05;;;14.00;99.90;;;;;;5150328;27;20409;-60
2023/06/05 07:17:05;;;;;;;0.30;0.30;;;14.20;99.90;;;;;;5150232;27;20047;-60
2023/06/05 07:19:32;;;;;;;0.32;0.32;;;14.30;99.90;;;;;;5150113;27;20103;-60
2023/06/05 07:21:59;;;;;;;0.38;0.38;;;14.40;99.90;;;;;;5150019;27;20031;-60
2023/06/05 07:24:26;;;;;;;0.17;0.17;;;14.10;99.90;;;;;;5149681;27;20144;-60
2023/06/05 07:26:55;;;;;;;0.10;0.10;;;14.10;99.90;;;;;;5148839;27;20134;-60
2023/06/05 07:29:21;;;;;;;0.60;0.52;;;14.50;99.90;;;;;;5150032;27;20477;-60
2023/06/05 07:31:48;;;;;;;0.55;0.55;;;14.40;99.90;;;;;;5149995;27;20035;-60
2023/06/05 07:34:14;;;;;;;0.10;0.10;;;14.40;99.90;;;;;;5149512;27;20137;-60
2023/06/05 07:36:41;;;;;;;1.02;0.47;;;14.10;99.90;;;;;;5145215;27;20091;-60
2023/06/05 07:39:07;;;;;;;0.93;0.40;;;14.50;99.90;;;;;;5131532;27;20123;-60
2023/06/05 07:41:32;;;;;;;0.28;0.28;;;14.30;99.90;;;;;;5148827;27;20478;-60
2023/06/05 07:43:58;;;;;;;;;;;14.40;99.90;;;;;;5149419;27;20039;-60
2023/06/05 07:46:24;;;;;;;0.30;0.30;;;14.50;99.90;;;;;;5148634;27;19961;-61
2023/06/05 07:48:49;;;;;;;;;;;14.80;99.90;;;;;;5149016;27;20039;-61
2023/06/05 07:51:17;;;;;;;0.10;0.10;;;14.60;99.90;;;;;;5148716;27;20091;-60
2023/06/05 07:53:44;;;;;;;0.40;0.40;;;14.60;99.90;;;;;;5148962;27;20087;-61
2023/06/05 07:56:11;;;;;;;0.15;0.15;;;14.10;99.90;;;;;;5148505;27;20051;-61
2023/06/05 07:58:39;;;;;;;0.10;0.10;;;14.10;99.90;;;;;;5148899;27;20043;-61
2023/06/05 08:01:06;;;;;;;0.65;0.63;;;14.00;99.90;;;;;;5148881;27;20111;-60
2023/06/05 08:03:33;;;;;;;0.20;0.20;;;14.20;99.90;;;;;;5148485;27;20528;-61
2023/06/05 08:05:58;;;;;;;;;;;14.10;99.90;;;;;;5148844;27;20043;-60
2023/06/05 08:08:24;;;;;;;0.10;0.10;;;14.40;99.90;;;;;;5146802;27;19929;-60
2023/06/05 08:10:50;;;;;;;0.20;0.20;;;14.40;99.90;;;;;;5163323;27;20133;-60
2023/06/05 08:13:16;;;;;;;;;;;14.50;99.90;;;;;;5148749;27;20479;-64
2023/06/05 08:15:43;;;;;;;0.20;0.20;;;15.20;99.90;;;;;;5167284;27;20014;-61
2023/06/05 08:18:10;;;;;;;0.20;0.20;;;15.00;99.90;;;;;;5133595;27;20131;-61
2023/06/05 08:20:36;;;;;;;0.17;0.17;;;15.00;99.90;;;;;;5127538;27;20041;-61
2023/06/05 08:23:05;;;;;;;0.10;0.10;;;15.40;99.90;;;;;;5154515;27;20043;-61
2023/06/05 08:25:32;;;;;;;0.20;0.20;;;15.10;99.90;;;;;;5155310;27;20051;-61
2023/06/05 08:27:58;;;;;;;0.10;0.10;;;15.10;99.90;;;;;;5154645;27;20070;-62
2023/06/05 08:30:25;;;;;;;0.10;0.10;;;14.90;99.90;;;;;;5153005;27;20549;-63
2023/06/05 08:32:52;;;;;;;0.50;0.50;;;14.70;99.90;;;;;;5152856;27;20082;-62
2023/06/05 08:35:19;;;;;;;0.20;0.20;;;15.10;99.90;;;;;;5155256;27;20177;-61
2023/06/05 08:37:46;;;;;;;0.35;0.35;;;14.70;99.90;;;;;;5155733;27;20078;-62
2023/06/05 08:40:13;;;;;;;0.20;0.20;;;14.70;99.90;;;;;;5154274;27;20513;-61
2023/06/05 08:42:40;;;;;;;0.20;0.20;;;14.70;99.90;;;;;;5154203;27;20356;-62
2023/06/05 08:45:08;;;;;;;0.10;0.10;;;15.00;99.90;;;;;;5155000;27;20038;-62
2023/06/05 08:47:40;;;;;;;0.28;0.22;;;14.40;99.90;;;;;;5154274;27;20073;-62
2023/06/05 08:50:08;;;;;;;0.20;0.20;;;14.60;99.90;;;;;;5154061;27;20410;-62
2023/06/05 08:52:38;;;;;;;0.30;0.25;;;15.10;99.90;;;;;;5137004;27;20096;-63
2023/06/05 08:55:07;;;;;;;0.77;0.32;;;15.50;99.90;;;;;;5154115;27;20047;-64
2023/06/05 08:57:40;;;;;;;0.20;0.20;;;15.50;99.90;;;;;;5153970;27;20061;-62
2023/06/05 09:00:10;;;;;;;0.28;0.28;;;15.60;99.90;;;;;;5154751;27;20050;-62
2023/06/05 09:02:43;;;;;;;0.10;0.10;;;16.00;99.90;;;;;;5153921;27;20050;-62
2023/06/05 09:05:11;;;;;;;0.15;0.15;;;15.70;99.90;;;;;;5154072;27;20047;-63
2023/06/05 09:07:38;;;;;;;0.10;0.10;;;16.00;99.90;;;;;;5154808;27;20134;-63
2023/06/05 09:10:07;;;;;;;0.10;0.10;;;16.30;99.90;;;;;;5155060;27;20053;-62
2023/06/05 09:12:59;;;;;;;0.43;0.43;;;16.40;99.90;;;;;;5154143;27;20050;-61
2023/06/05 09:15:33;;;;;;;0.10;0.10;;;16.70;99.90;;;;;;5146371;27;20357;-63
2023/06/05 09:18:12;;;;;;;0.68;0.68;;;16.40;99.90;;;;;;5132678;27;20047;-64
2023/06/05 09:20:45;;;;;;;0.20;0.20;;;16.20;99.90;;;;;;5133747;27;20122;-63
2023/06/05 09:23:26;;;;;;;0.10;0.10;;;16.40;99.90;;;;;;5114600;27;20049;-65
2023/06/05 09:25:55;;;;;;;0.20;0.20;;;16.40;99.90;;;;;;5140164;27;20501;-63
2023/06/05 09:28:22;;;;;;;0.10;0.10;;;15.60;99.90;;;;;;5154384;27;20053;-63
2023/06/05 09:30:56;;;;;;;0.10;0.10;;;15.50;99.90;;;;;;5153076;27;20043;-63
2023/06/05 09:33:23;;;;;;;0.10;0.10;;;15.60;99.90;;;;;;5153097;27;20111;-64
2023/06/05 09:36:11;;;;;;;0.10;0.10;;;16.00;99.90;;;;;;5145248;27;20067;-62
2023/06/05 09:38:40;;;;;;;0.10;0.10;;;16.10;99.90;;;;;;5148057;27;20051;-64
2023/06/05 09:41:11;;;;;;;0.10;0.10;;;16.00;99.90;;;;;;5144341;27;20131;-63
2023/06/05 09:43:39;;;;;;;0.05;0.05;;;16.40;99.90;;;;;;5132657;27;20043;-62
2023/06/05 09:46:11;;;;;;;0.80;0.40;;;16.40;99.90;;;;;;5131191;27;20078;-62
2023/06/05 09:48:43;;;;;;;0.43;0.43;;;16.30;99.90;;;;;;5097579;27;20050;-61
2023/06/05 09:51:18;;;;;;;0.10;0.10;;;16.60;99.90;;;;;;5115292;27;20043;-63
2023/06/05 09:53:46;;;;;;;0.20;0.20;;;16.50;99.90;;;;;;5115386;27;20047;-62
2023/06/05 09:56:15;;;;;;;0.10;0.10;;;16.60;99.90;;;;;;5135553;27;20051;-63
2023/06/05 09:58:47;;;;;;;0.05;0.05;;;16.90;99.90;;;;;;5152440;27;20049;-62
2023/06/05 10:01:24;;;;;;;0.15;0.15;;;16.50;99.90;;;;;;5153300;27;20171;-61
2023/06/05 10:03:59;;;;;;;0.17;0.17;;;16.40;99.90;;;;;;5154158;27;20055;-60
2023/06/05 10:06:28;;;;;;;0.10;0.10;;;16.40;99.90;;;;;;5152267;27;20502;-60
2023/06/05 10:08:56;;;;;;;0.10;0.10;;;16.20;99.90;;;;;;5152472;27;20177;-60
2023/06/05 10:11:26;;;;;;;0.20;0.20;;;16.30;99.90;;;;;;5154130;27;20469;-60
2023/06/05 10:13:54;;;;;;;0.20;0.20;;;16.80;99.90;;;;;;5134905;27;20046;-60
2023/06/05 10:16:21;;;;;;;0.20;0.20;;;17.00;99.90;;;;;;5152498;27;20489;-60
2023/06/05 10:18:49;;;;;;;1.58;0.57;;;17.40;99.90;;;;;;5152482;27;20057;-60
2023/06/05 10:21:17;;;;;;;0.13;0.13;;;17.50;99.90;;;;;;5152024;27;20039;-60
2023/06/05 10:23:55;;;;;;;0.10;0.10;;;17.30;99.90;;;;;;5152150;27;20407;-61
2023/06/05 10:26:54;;;;;;;0.10;0.10;;;17.60;99.90;;;;;;5153194;27;20121;-61
2023/06/05 10:29:55;;;;;;;0.10;0.10;;;17.20;99.90;;;;;;5118727;27;20050;-62
2023/06/05 10:32:46;;;;;;;0.10;0.10;;;17.00;99.90;;;;;;5153341;27;20077;-61
2023/06/05 10:35:36;;;;;;;0.25;0.25;;;17.20;99.90;;;;;;5153129;27;20051;-60
2023/06/05 10:38:26;;;;;;;0.10;0.10;;;17.10;99.90;;;;;;5152021;27;20506;-61
2023/06/05 10:41:00;;;;;;;0.20;0.20;;;17.40;99.90;;;;;;5153843;27;20057;-61
2023/06/05 10:43:31;;;;;;;0.30;0.30;;;17.30;99.90;;;;;;5148475;27;20050;-61
2023/06/05 10:45:59;;;;;;;0.20;0.20;;;18.90;99.90;;;;;;5112133;28;20075;-61
2023/06/05 10:49:03;;;;;;;1.30;0.30;;;17.40;99.90;;;;;;5129971;27;20085;-61
2023/06/05 10:51:44;;;;;;;3.70;0.25;;;17.30;99.90;;;;;;5132487;27;20448;-61
2023/06/05 10:54:17;;;;;;;0.55;0.20;;;17.10;99.90;;;;;;5131579;27;20389;-61
2023/06/05 10:57:02;;;;;;;0.50;0.35;;;17.20;99.90;;;;;;5132527;27;20081;-61
2023/06/05 10:59:30;;;;;;;0.22;0.22;;;17.00;99.90;;;;;;5132465;27;20035;-61
2023/06/05 11:02:08;;;;;;;0.30;0.30;;;16.80;99.90;;;;;;5131770;27;20086;-61
2023/06/05 11:04:46;;;;;;;0.00;0.00;;;17.00;99.90;;;;;;5132264;27;20056;-61
2023/06/05 11:07:18;;;;;;;0.10;0.10;;;17.30;99.90;;;;;;5132282;27;20058;-61
2023/06/05 11:10:05;;;;;;;0.10;0.10;;;17.50;99.90;;;;;;5132191;27;20134;-61
2023/06/05 11:12:42;;;;;;;0.30;0.30;;;17.20;99.90;;;;;;5131936;27;20126;-63
2023/06/05 11:15:08;;;;;;;0.10;0.10;;;19.80;99.90;;;;;;5132515;28;20097;-61
2023/06/05 11:17:36;;;;;;;0.20;0.20;;;17.40;99.90;;;;;;5132455;27;20081;-61
2023/06/05 11:20:09;;;;;;;0.15;0.15;;;17.40;99.90;;;;;;5132193;28;20047;-61
2023/06/05 11:22:53;;;;;;;0.20;0.20;;;17.50;99.90;;;;;;5132385;27;20047;-60
2023/06/05 11:25:24;;;;;;;0.30;0.30;;;17.40;99.90;;;;;;5132531;27;20039;-61
2023/06/05 11:28:07;;;;;;;0.20;0.20;;;17.80;99.90;;;;;;5131635;27;20483;-61
2023/06/05 11:30:38;;;;;;;0.10;0.10;;;17.60;99.90;;;;;;5111780;28;20080;-61
2023/06/05 11:33:08;;;;;;;0.10;0.10;;;17.70;99.90;;;;;;5112624;28;20094;-61
2023/06/05 11:35:35;;;;;;;0.60;0.22;;;17.40;99.90;;;;;;5131985;27;20039;-61
2023/06/05 11:38:17;;;;;;;0.25;0.25;;;17.50;99.90;;;;;;5138118;27;20153;-61
2023/06/05 11:40:44;;;;;;;0.55;0.55;;;17.80;99.90;;;;;;5138072;27;20043;-61
2023/06/05 11:43:12;;;;;;;0.20;0.20;;;17.30;99.90;;;;;;5132280;28;20054;-62
2023/06/05 11:45:40;;;;;;;0.10;0.10;;;17.90;99.90;;;;;;5131774;27;20082;-61
2023/06/05 11:48:11;;;;;;;0.30;0.30;;;17.90;99.90;;;;;;5133801;27;20096;-62
2023/06/05 11:50:39;;;;;;;0.08;0.08;;;17.40;99.90;;;;;;5135893;27;20072;-61
2023/06/05 11:53:05;;;;;;;0.15;0.15;;;17.40;99.90;;;;;;5135482;27;20051;-62
2023/06/05 11:58:29;;;;;;;0.30;0.25;;;17.30;99.90;;;;;;5135930;27;20143;-61
2023/06/05 12:01:04;;;;;;;0.45;0.45;;;17.30;99.90;;;;;;5135664;27;20407;-61
2023/06/05 12:03:30;;;;;;;0.10;0.10;;;17.40;99.90;;;;;;5135704;27;20125;-60
2023/06/05 12:05:57;;;;;;;0.13;0.13;;;17.10;99.90;;;;;;5135889;27;20126;-61
2023/06/05 12:08:25;;;;;;;0.10;0.10;;;17.60;99.90;;;;;;5135440;27;20057;-60
2023/06/05 12:10:52;;;;;;;0.25;0.25;;;17.70;99.90;;;;;;5135566;27;20088;-60
2023/06/05 12:13:17;;;;;;;0.28;0.25;;;17.90;99.90;;;;;;5135275;27;20043;-61
2023/06/05 12:15:58;;;;;;;0.20;0.20;;;17.50;99.90;;;;;;5135097;27;20050;-61
2023/06/05 12:18:34;;;;;;;0.22;0.22;;;17.60;99.90;;;;;;5135299;27;20499;-61
2023/06/05 12:21:00;;;;;;;0.43;0.43;;;17.70;99.90;;;;;;5135361;27;20043;-60
2023/06/05 12:23:28;;;;;;;1.40;0.65;;;17.30;99.90;;;;;;5134952;27;20047;-61
2023/06/05 12:26:04;;;;;;;0.10;0.10;;;17.20;99.90;;;;;;5135219;27;20078;-61
2023/06/05 12:28:31;;;;;;;0.17;0.17;;;17.00;99.90;;;;;;5135111;27;20116;-61
2023/06/05 12:30:58;;;;;;;0.40;0.30;;;17.40;99.90;;;;;;5134878;27;20082;-61
2023/06/05 12:33:24;;;;;;;0.17;0.17;;;17.40;99.90;;;;;;5135191;27;20051;-61
2023/06/05 12:36:10;;;;;;;0.03;0.03;;;17.80;99.90;;;;;;5135104;27;20079;-61
2023/06/05 12:38:41;;;;;;;0.10;0.10;;;17.80;99.90;;;;;;5134708;27;20054;-61
2023/06/05 12:41:10;;;;;;;2.92;0.70;;;17.70;99.90;;;;;;5134758;27;20043;-61
2023/06/05 12:43:36;;;;;;;0.47;0.45;;;17.70;99.90;;;;;;5135045;27;20054;-61
2023/06/05 12:46:02;;;;;;;0.15;0.15;;;18.00;99.90;;;;;;5134830;27;20409;-61
2023/06/05 12:48:28;;;;;;;3.00;0.57;;;18.10;99.90;;;;;;5134869;27;20057;-61
2023/06/05 12:50:56;;;;;;;0.47;0.47;;;18.00;99.90;;;;;;5134842;27;20047;-61
2023/06/05 12:53:22;;;;;;;0.00;0.00;;;18.10;99.90;;;;;;5134357;27;20051;-61
2023/06/05 12:55:48;;;;;;;0.10;0.10;;;18.50;99.90;;;;;;5134429;27;20387;-61
2023/06/05 12:58:13;;;;;;;0.30;0.30;;;18.20;99.90;;;;;;5134659;27;20054;-62
2023/06/05 13:00:39;;;;;;;0.13;0.13;;;18.30;99.90;;;;;;5134263;27;20054;-61
2023/06/05 13:03:05;;;;;;;0.10;0.10;;;18.20;99.90;;;;;;5134733;27;20075;-61
2023/06/05 13:05:31;;;;;;;0.17;0.15;;;17.90;99.90;;;;;;5134425;27;20043;-61
2023/06/05 13:07:58;;;;;;;0.55;0.40;;;18.50;99.90;;;;;;5134109;27;20046;-60